createdAt,value
2019-05-13T00:01:07.088Z,8.17
2019-05-13T00:03:35.384Z,8.53
2019-05-13T00:06:04.351Z,6.77
2019-05-13T00:08:33.783Z,8.37
2019-05-13T00:11:04.439Z,5.83
2019-05-13T00:13:33.799Z,12.40
2019-05-13T00:16:03.738Z,10.07
2019-05-13T00:18:34.049Z,8.63
2019-05-13T00:21:03.818Z,8.60
2019-05-13T00:23:33.978Z,8.77
2019-05-13T00:26:03.870Z,9.10
2019-05-13T00:28:34.291Z,9.33
2019-05-13T00:31:03.665Z,10.17
2019-05-13T00:33:35.463Z,10.17
2019-05-13T00:36:04.363Z,7.73
2019-05-13T00:38:33.714Z,8.50
2019-05-13T00:41:03.661Z,8.17
2019-05-13T00:43:33.799Z,8.97
2019-05-13T00:46:03.877Z,5.17
2019-05-13T00:48:33.443Z,7.70
2019-05-13T00:51:03.860Z,10.57
2019-05-13T00:53:35.302Z,8.90
2019-05-13T00:56:04.344Z,6.40
2019-05-13T00:58:33.593Z,8.37
2019-05-13T01:01:03.637Z,7.67
2019-05-13T01:03:33.831Z,6.50
2019-05-13T01:06:04.203Z,8.23
2019-05-13T01:08:33.961Z,9.40
2019-05-13T01:11:04.250Z,9.37
2019-05-13T01:13:34.209Z,6.37
2019-05-13T01:16:03.863Z,7.37
2019-05-13T01:18:34.005Z,7.67
2019-05-13T01:21:04.487Z,11.07
2019-05-13T01:23:34.404Z,8.80
2019-05-13T01:26:04.300Z,6.70
2019-05-13T01:28:34.512Z,11.40
2019-05-13T01:31:04.133Z,7.57
2019-05-13T01:33:35.113Z,7.30
2019-05-13T01:36:05.276Z,8.77
2019-05-13T01:38:34.443Z,6.73
2019-05-13T01:41:04.460Z,8.33
2019-05-13T01:43:33.629Z,6.73
2019-05-13T01:46:04.444Z,8.30
2019-05-13T01:48:33.366Z,7.40
2019-05-13T01:51:03.798Z,9.53
2019-05-13T01:53:33.579Z,9.23
2019-05-13T01:56:03.886Z,5.97
2019-05-13T01:58:33.964Z,8.93
2019-05-13T02:01:05.088Z,8.47
2019-05-13T02:03:34.252Z,7.33
2019-05-13T02:06:03.720Z,5.57
2019-05-13T02:08:33.713Z,11.53
2019-05-13T02:11:04.409Z,7.67
2019-05-13T02:13:34.346Z,9.23
2019-05-13T02:16:04.346Z,7.30
2019-05-13T02:18:34.181Z,6.67
2019-05-13T02:21:05.434Z,6.90
2019-05-13T02:23:34.174Z,7.43
2019-05-13T02:26:04.414Z,7.67
2019-05-13T02:28:33.682Z,13.20
2019-05-13T02:31:02.729Z,9.77
2019-05-13T02:33:33.996Z,11.13
2019-05-13T02:36:03.235Z,12.63
2019-05-13T02:38:35.409Z,6.83
2019-05-13T02:41:03.410Z,8.07
2019-05-13T02:43:33.458Z,6.80
2019-05-13T02:46:04.215Z,9.30
2019-05-13T02:48:33.574Z,6.83
2019-05-13T02:51:03.725Z,9.97
2019-05-13T02:53:33.764Z,9.00
2019-05-13T02:56:03.423Z,11.73
2019-05-13T02:58:33.621Z,8.63
2019-05-13T03:01:03.314Z,8.37
2019-05-13T03:03:33.049Z,10.47
2019-05-13T03:06:02.864Z,11.50
2019-05-13T03:08:41.019Z,9.03
2019-05-13T03:11:03.302Z,10.50
2019-05-13T03:13:33.019Z,8.47
2019-05-13T03:16:23.072Z,11.73
2019-05-13T03:18:52.550Z,7.37
2019-05-13T03:21:23.191Z,7.60
2019-05-13T03:23:52.670Z,10.20
2019-05-13T03:26:23.517Z,11.43
2019-05-13T03:28:52.527Z,10.37
2019-05-13T03:31:26.396Z,6.20
2019-05-13T03:33:55.625Z,6.37
2019-05-13T03:36:25.863Z,9.83
2019-05-13T03:39:04.640Z,11.73
2019-05-13T03:41:27.927Z,8.03
2019-05-13T03:43:58.395Z,9.00
2019-05-13T03:46:28.922Z,8.77
2019-05-13T03:49:02.454Z,8.20
2019-05-13T03:51:32.686Z,6.97
2019-05-13T03:54:03.127Z,5.37
2019-05-13T03:56:32.898Z,7.53
2019-05-13T03:59:02.847Z,9.47
2019-05-13T04:01:32.756Z,9.43
2019-05-13T04:04:03.328Z,8.20
2019-05-13T04:06:32.681Z,7.33
2019-05-13T04:09:21.099Z,6.63
2019-05-13T04:11:33.042Z,12.47
2019-05-13T04:14:03.243Z,5.57
2019-05-13T04:16:32.647Z,8.20
2019-05-13T04:19:02.594Z,10.97
2019-05-13T04:21:33.855Z,6.40
2019-05-13T04:24:04.031Z,5.80
2019-05-13T04:26:33.100Z,8.40
2019-05-13T04:29:03.204Z,6.60
2019-05-13T04:31:33.372Z,7.43
2019-05-13T04:34:03.024Z,6.13
2019-05-13T04:36:32.192Z,8.70
2019-05-13T04:39:03.313Z,6.77
2019-05-13T04:41:33.230Z,6.27
2019-05-13T04:44:02.821Z,6.83
2019-05-13T04:46:32.917Z,8.40
2019-05-13T04:49:02.399Z,9.23
2019-05-13T04:51:33.025Z,5.80
2019-05-13T04:54:02.948Z,8.27
2019-05-13T04:56:33.008Z,5.57
2019-05-13T04:59:03.131Z,10.20
2019-05-13T05:02:08.716Z,9.67
2019-05-13T05:04:52.224Z,4.47
2019-05-13T05:07:43.590Z,6.17
2019-05-13T05:10:51.122Z,8.53
2019-05-13T05:13:42.688Z,6.20
2019-05-13T05:16:28.544Z,8.67
2019-05-13T05:19:32.317Z,8.43
2019-05-13T05:22:16.081Z,8.83
2019-05-13T05:24:52.028Z,12.83
2019-05-13T05:27:45.079Z,3.10
2019-05-13T05:30:41.173Z,6.57
2019-05-13T05:33:35.923Z,4.23
2019-05-13T05:36:13.688Z,5.77
2019-05-13T05:39:12.250Z,5.33
2019-05-13T05:41:43.538Z,7.73
2019-05-13T05:44:13.612Z,6.63
2019-05-13T05:46:42.968Z,6.93
2019-05-13T05:49:12.736Z,6.37
2019-05-13T05:51:43.173Z,10.87
2019-05-13T05:54:14.586Z,10.33
2019-05-13T05:56:54.020Z,9.57
2019-05-13T05:59:23.995Z,8.00
2019-05-13T06:01:54.869Z,7.47
2019-05-13T06:04:25.824Z,6.83
2019-05-13T06:06:57.841Z,10.43
2019-05-13T06:09:26.910Z,7.17
2019-05-13T06:11:55.854Z,6.63
2019-05-13T06:14:24.823Z,7.93
2019-05-13T06:16:53.693Z,7.07
2019-05-13T06:19:22.690Z,8.77
2019-05-13T06:21:51.710Z,8.13
2019-05-13T06:24:24.618Z,5.40
2019-05-13T06:26:52.049Z,10.70
2019-05-13T06:29:22.235Z,6.27
2019-05-13T06:31:51.957Z,5.57
2019-05-13T06:34:21.600Z,10.60
2019-05-13T06:36:52.309Z,7.30
2019-05-13T06:39:22.231Z,9.80
2019-05-13T06:41:51.872Z,7.37
2019-05-13T06:44:21.513Z,8.83
2019-05-13T06:46:51.696Z,5.97
2019-05-13T06:49:21.635Z,8.20
2019-05-13T06:51:52.671Z,6.97
2019-05-13T06:54:22.065Z,6.47
2019-05-13T06:56:51.715Z,5.63
2019-05-13T06:59:22.309Z,9.87
2019-05-13T07:01:51.568Z,7.23
2019-05-13T07:04:21.953Z,6.90
2019-05-13T07:07:01.106Z,7.70
2019-05-13T07:09:21.745Z,7.53
2019-05-13T07:11:51.838Z,4.50
2019-05-13T07:14:21.838Z,5.73
2019-05-13T07:16:52.416Z,7.87
2019-05-13T07:19:23.717Z,11.17
2019-05-13T07:21:52.185Z,6.10
2019-05-13T07:24:21.489Z,5.53
2019-05-13T07:26:52.332Z,10.80
2019-05-13T07:29:24.085Z,6.70
2019-05-13T07:31:52.342Z,8.37
2019-05-13T07:34:24.551Z,8.43
2019-05-13T07:36:52.664Z,6.50
2019-05-13T07:39:22.420Z,6.40
2019-05-13T07:41:52.069Z,7.50
2019-05-13T07:44:22.366Z,4.93
2019-05-13T07:46:52.246Z,5.67
2019-05-13T07:49:22.544Z,6.17
2019-05-13T07:51:52.129Z,8.50
2019-05-13T07:54:22.161Z,6.17
2019-05-13T07:56:52.396Z,6.33
2019-05-13T07:59:21.477Z,8.17
2019-05-13T08:01:52.186Z,8.23
2019-05-13T08:04:23.650Z,7.20
2019-05-13T08:06:52.384Z,5.13
2019-05-13T08:09:21.701Z,6.20
2019-05-13T08:12:05.437Z,7.07
2019-05-13T08:14:22.085Z,7.40
2019-05-13T08:16:51.792Z,4.10
2019-05-13T08:19:21.790Z,5.73
2019-05-13T08:21:51.457Z,6.37
2019-05-13T08:24:22.666Z,3.80
2019-05-13T08:26:53.062Z,9.50
2019-05-13T08:29:21.941Z,5.90
2019-05-13T08:31:51.788Z,6.53
2019-05-13T08:34:22.616Z,6.33
2019-05-13T08:36:51.837Z,6.03
2019-05-13T08:39:21.670Z,5.60
2019-05-13T08:41:51.563Z,5.47
2019-05-13T08:44:21.602Z,4.97
2019-05-13T08:46:51.893Z,7.13
2019-05-13T08:49:21.972Z,3.40
2019-05-13T08:51:52.741Z,4.97
2019-05-13T08:54:22.083Z,4.07
2019-05-13T08:56:52.043Z,7.23
2019-05-13T08:59:22.177Z,5.00
2019-05-13T09:01:52.097Z,4.97
2019-05-13T09:04:22.282Z,7.00
2019-05-13T09:06:52.387Z,5.53
2019-05-13T09:09:22.082Z,7.33
2019-05-13T09:11:51.694Z,5.57
2019-05-13T09:14:21.892Z,4.80
2019-05-13T09:16:52.608Z,6.33
2019-05-13T09:19:21.751Z,5.03
2019-05-13T09:21:52.618Z,6.43
2019-05-13T09:24:29.075Z,4.63
2019-05-13T09:26:52.715Z,3.00
2019-05-13T09:29:22.590Z,3.33
2019-05-13T09:31:52.170Z,5.53
2019-05-13T09:34:22.149Z,3.60
2019-05-13T09:36:51.859Z,5.30
2019-05-13T09:39:21.716Z,4.10
2019-05-13T09:41:52.173Z,3.73
2019-05-13T09:44:21.847Z,6.50
2019-05-13T09:46:51.797Z,4.50
2019-05-13T09:51:52.269Z,7.07
2019-05-13T09:54:22.272Z,3.10
2019-05-13T09:56:51.889Z,3.80
2019-05-13T09:59:22.111Z,5.07
2019-05-13T10:01:52.021Z,4.40
2019-05-13T10:04:22.293Z,6.43
2019-05-13T10:06:51.500Z,8.03
2019-05-13T10:09:21.685Z,8.53
2019-05-13T10:11:51.905Z,4.97
2019-05-13T10:14:23.004Z,2.33
2019-05-13T10:16:51.779Z,4.47
2019-05-13T10:19:21.587Z,5.00
2019-05-13T10:21:52.451Z,7.93
2019-05-13T10:24:22.221Z,6.83
2019-05-13T10:26:51.878Z,3.60
2019-05-13T10:29:22.284Z,6.07
2019-05-13T10:31:52.819Z,3.57
2019-05-13T10:34:22.512Z,2.60
2019-05-13T10:36:51.950Z,4.07
2019-05-13T10:39:22.383Z,7.57
2019-05-13T10:41:52.459Z,5.60
2019-05-13T10:44:21.643Z,4.70
2019-05-13T10:46:52.186Z,6.60
2019-05-13T10:49:22.120Z,3.03
2019-05-13T10:51:52.655Z,2.37
2019-05-13T10:54:22.088Z,3.17
2019-05-13T10:56:53.143Z,4.90
2019-05-13T10:59:22.981Z,5.53
2019-05-13T11:01:52.247Z,4.33
2019-05-13T11:04:22.163Z,5.10
2019-05-13T11:06:52.386Z,5.00
2019-05-13T11:09:22.424Z,4.80
2019-05-13T11:11:52.821Z,3.17
2019-05-13T11:14:22.374Z,2.90
2019-05-13T11:16:52.511Z,2.90
2019-05-13T11:19:23.239Z,1.90
2019-05-13T11:21:52.433Z,3.43
2019-05-13T11:24:22.680Z,4.43
2019-05-13T11:26:53.053Z,2.57
2019-05-13T11:29:23.181Z,4.30
2019-05-13T11:31:52.686Z,2.43
2019-05-13T11:34:22.639Z,2.50
2019-05-13T11:36:53.189Z,2.93
2019-05-13T11:39:22.584Z,2.40
2019-05-13T11:41:51.520Z,5.83
2019-05-13T11:44:22.491Z,3.77
2019-05-13T11:46:52.994Z,4.70
2019-05-13T11:49:21.504Z,2.47
2019-05-13T11:51:51.918Z,7.07
2019-05-13T11:54:22.363Z,3.27
2019-05-13T11:57:01.136Z,3.63
2019-05-13T11:59:22.253Z,3.83
2019-05-13T12:01:53.900Z,5.07
2019-05-13T12:04:24.164Z,3.60
2019-05-13T12:06:54.495Z,4.57
2019-05-13T12:09:22.917Z,3.00
2019-05-13T12:11:51.781Z,2.50
2019-05-13T12:14:42.868Z,3.27
2019-05-13T12:16:51.307Z,2.93
2019-05-13T12:19:21.858Z,3.47
2019-05-13T12:21:54.205Z,1.87
2019-05-13T12:24:22.686Z,2.73
2019-05-13T12:26:53.258Z,9.30
2019-05-13T12:29:22.424Z,3.43
2019-05-13T12:31:52.615Z,4.20
2019-05-13T12:34:22.856Z,2.37
2019-05-13T12:36:52.123Z,5.63
2019-05-13T12:39:23.843Z,3.70
2019-05-13T12:41:53.906Z,2.37
2019-05-13T12:44:23.006Z,3.90
2019-05-13T12:46:54.403Z,3.43
2019-05-13T12:49:22.929Z,1.90
2019-05-13T12:52:00.342Z,2.63
2019-05-13T12:54:23.865Z,3.53
2019-05-13T12:56:52.991Z,2.90
2019-05-13T12:59:22.371Z,2.23
2019-05-13T13:01:52.716Z,4.17
2019-05-13T13:04:24.013Z,3.50
2019-05-13T13:06:53.335Z,3.47
2019-05-13T13:09:22.671Z,3.47
2019-05-13T13:11:54.499Z,3.97
2019-05-13T13:14:22.324Z,4.63
2019-05-13T13:16:53.975Z,2.13
2019-05-13T13:19:22.186Z,2.33
2019-05-13T13:21:53.511Z,1.27
2019-05-13T13:26:53.374Z,4.27
2019-05-13T13:29:23.050Z,5.00
2019-05-13T13:31:55.489Z,2.50
2019-05-13T13:34:26.041Z,3.97
2019-05-13T13:36:53.007Z,3.23
2019-05-13T13:39:31.966Z,3.80
2019-05-13T13:42:05.693Z,3.67
2019-05-13T13:44:35.095Z,3.80
2019-05-13T13:47:02.556Z,4.77
2019-05-13T13:49:34.854Z,2.50
2019-05-13T13:52:02.071Z,2.73
2019-05-13T13:54:33.569Z,1.83
2019-05-13T13:57:02.506Z,4.17
2019-05-13T13:59:36.000Z,3.97
2019-05-13T14:02:05.441Z,1.63
2019-05-13T14:04:32.664Z,3.77
2019-05-13T14:06:25.322Z,3.80
2019-05-13T14:07:09.591Z,2.40
2019-05-13T14:07:22.387Z,1.83
2019-05-13T14:09:32.224Z,2.03
2019-05-13T14:12:02.045Z,3.23
2019-05-13T14:14:31.942Z,2.30
2019-05-13T14:17:02.450Z,3.07
2019-05-13T14:19:32.338Z,3.73
2019-05-13T14:22:01.751Z,4.00
2019-05-13T14:24:33.032Z,1.27
2019-05-13T14:27:02.881Z,4.53
2019-05-13T14:29:40.595Z,1.77
2019-05-13T14:32:02.396Z,2.53
2019-05-13T14:34:31.939Z,1.53
2019-05-13T14:37:01.263Z,3.20
2019-05-13T14:39:31.870Z,3.17
2019-05-13T14:42:02.164Z,1.83
2019-05-13T14:44:32.476Z,3.77
2019-05-13T14:47:01.692Z,2.00
2019-05-13T14:49:31.658Z,2.53
2019-05-13T14:52:01.386Z,2.83
2019-05-13T14:54:31.314Z,1.43
2019-05-13T14:57:02.442Z,2.00
2019-05-13T14:59:31.601Z,5.33
2019-05-13T15:02:01.362Z,2.77
2019-05-13T15:04:32.528Z,3.30
2019-05-13T15:07:01.105Z,0.63
2019-05-13T15:09:31.452Z,1.87
2019-05-13T15:12:02.160Z,1.97
2019-05-13T15:14:31.871Z,1.97
2019-05-13T15:17:06.297Z,4.47
2019-05-13T15:19:31.784Z,1.37
2019-05-13T15:22:00.867Z,2.10
2019-05-13T15:24:31.971Z,2.53
2019-05-13T15:27:00.335Z,3.50
2019-05-13T15:29:31.268Z,4.00
2019-05-13T15:32:01.866Z,1.63
2019-05-13T15:34:31.812Z,4.50
2019-05-13T15:37:02.036Z,3.37
2019-05-13T15:39:31.534Z,2.53
2019-05-13T15:42:01.919Z,4.90
2019-05-13T15:44:32.685Z,1.10
2019-05-13T15:47:07.219Z,0.83
2019-05-13T15:49:32.570Z,1.83
2019-05-13T15:52:01.886Z,3.93
2019-05-13T15:54:32.680Z,3.10
2019-05-13T15:57:02.651Z,0.90
2019-05-13T15:59:31.631Z,1.40
2019-05-13T16:02:02.071Z,2.43
2019-05-13T16:04:31.064Z,2.37
2019-05-13T16:07:01.662Z,3.97
2019-05-13T16:09:31.433Z,1.13
2019-05-13T16:12:01.489Z,2.50
2019-05-13T16:14:31.433Z,1.27
2019-05-13T16:17:00.710Z,1.10
2019-05-13T16:19:32.710Z,2.60
2019-05-13T16:22:01.380Z,1.60
2019-05-13T16:24:32.081Z,1.53
2019-05-13T16:27:02.524Z,1.83
2019-05-13T16:29:31.759Z,3.03
2019-05-13T16:32:01.509Z,1.63
2019-05-13T16:34:31.930Z,0.97
2019-05-13T16:37:01.869Z,2.00
2019-05-13T16:39:32.100Z,2.37
2019-05-13T16:42:01.183Z,2.30
2019-05-13T16:44:36.203Z,1.07
2019-05-13T16:47:05.096Z,4.23
2019-05-13T16:49:34.065Z,1.00
2019-05-13T16:52:02.915Z,2.73
2019-05-13T16:54:32.801Z,2.93
2019-05-13T16:57:02.091Z,1.60
2019-05-13T16:59:31.599Z,2.73
2019-05-13T17:02:01.786Z,3.83
2019-05-13T17:04:32.154Z,1.50
2019-05-13T17:07:01.665Z,3.57
2019-05-13T17:09:32.299Z,5.37
2019-05-13T17:12:01.586Z,3.70
2019-05-13T17:14:32.217Z,2.50
2019-05-13T17:17:01.369Z,2.03
2019-05-13T17:19:31.790Z,3.73
2019-05-13T17:22:02.543Z,2.50
2019-05-13T17:24:32.030Z,1.30
2019-05-13T17:27:01.890Z,2.73
2019-05-13T17:29:31.855Z,5.83
2019-05-13T17:32:02.471Z,4.37
2019-05-13T17:34:32.022Z,1.50
2019-05-13T17:37:02.648Z,3.30
2019-05-13T17:39:32.254Z,2.27
2019-05-13T17:42:01.715Z,3.03
2019-05-13T17:44:31.827Z,1.93
2019-05-13T17:47:01.832Z,4.33
2019-05-13T17:49:31.913Z,4.10
2019-05-13T17:52:02.394Z,4.73
2019-05-13T17:54:31.994Z,1.50
2019-05-13T17:57:01.893Z,3.20
2019-05-13T17:59:31.672Z,2.93
2019-05-13T18:02:02.583Z,2.60
2019-05-13T18:04:31.689Z,3.67
2019-05-13T18:07:01.684Z,3.53
2019-05-13T18:09:31.831Z,3.60
2019-05-13T18:12:02.455Z,3.00
2019-05-13T18:14:31.665Z,1.83
2019-05-13T18:17:02.137Z,3.53
2019-05-13T18:19:31.821Z,1.17
2019-05-13T18:22:02.293Z,1.80
2019-05-13T18:24:32.206Z,1.57
2019-05-13T18:27:02.442Z,2.73
2019-05-13T18:29:31.709Z,1.97
2019-05-13T18:32:01.868Z,2.27
2019-05-13T18:34:32.193Z,0.80
2019-05-13T18:37:02.377Z,2.00
2019-05-13T18:39:32.279Z,3.00
2019-05-13T18:42:01.782Z,1.63
2019-05-13T18:44:31.636Z,2.63
2019-05-13T18:47:01.678Z,3.33
2019-05-13T18:49:31.754Z,1.70
2019-05-13T18:52:01.487Z,2.00
2019-05-13T18:54:31.553Z,2.20
2019-05-13T18:57:01.595Z,2.80
2019-05-13T18:59:32.217Z,1.20
2019-05-13T19:02:01.661Z,2.97
2019-05-13T19:04:31.280Z,2.20
2019-05-13T19:07:02.384Z,2.80
2019-05-13T19:09:31.555Z,1.87
2019-05-13T19:12:01.377Z,4.13
2019-05-13T19:14:31.852Z,2.13
2019-05-13T19:17:00.967Z,2.03
2019-05-13T19:19:31.678Z,1.27
2019-05-13T19:22:02.105Z,1.53
2019-05-13T19:24:31.322Z,3.83
2019-05-13T19:27:01.752Z,2.73
2019-05-13T19:29:31.781Z,3.97
2019-05-13T19:32:01.819Z,1.30
2019-05-13T19:34:32.413Z,3.43
2019-05-13T19:37:02.417Z,2.37
2019-05-13T19:39:31.623Z,1.00
2019-05-13T19:42:00.556Z,2.10
2019-05-13T19:44:31.564Z,2.23
2019-05-13T19:47:01.932Z,3.03
2019-05-13T19:49:36.654Z,2.50
2019-05-13T19:52:02.063Z,3.33
2019-05-13T19:54:31.483Z,1.57
2019-05-13T19:57:01.412Z,2.03
2019-05-13T19:59:32.217Z,4.03
2019-05-13T20:02:01.627Z,2.77
2019-05-13T20:04:31.288Z,4.03
2019-05-13T20:07:00.655Z,2.80
2019-05-13T20:09:32.032Z,4.13
2019-05-13T20:12:02.081Z,2.57
2019-05-13T20:14:30.681Z,5.53
2019-05-13T20:17:01.457Z,4.83
2019-05-13T20:19:46.082Z,2.73
2019-05-13T20:22:02.362Z,2.60
2019-05-13T20:24:31.437Z,2.43
2019-05-13T20:27:01.506Z,2.40
2019-05-13T20:29:30.749Z,2.70
2019-05-13T20:32:01.364Z,2.40
2019-05-13T20:34:31.815Z,3.27
2019-05-13T20:37:02.128Z,4.80
2019-05-13T20:39:32.068Z,2.17
2019-05-13T20:42:01.772Z,2.50
2019-05-13T20:44:31.438Z,2.83
2019-05-13T20:47:01.574Z,2.60
2019-05-13T20:49:31.271Z,4.93
2019-05-13T20:52:00.648Z,3.37
2019-05-13T20:54:31.432Z,3.57
2019-05-13T20:57:02.028Z,4.33
2019-05-13T20:59:32.191Z,3.00
2019-05-13T21:02:02.400Z,1.93
2019-05-13T21:04:32.254Z,2.63
2019-05-13T21:07:02.131Z,3.57
2019-05-13T21:09:31.639Z,5.40
2019-05-13T21:12:01.825Z,3.33
2019-05-13T21:14:31.956Z,3.03
2019-05-13T21:17:01.537Z,2.70
2019-05-13T21:19:39.169Z,3.33
2019-05-13T21:22:01.060Z,3.10
2019-05-13T21:24:31.798Z,3.33
2019-05-13T21:27:01.934Z,3.20
2019-05-13T21:29:32.329Z,2.77
2019-05-13T21:32:01.390Z,3.00
2019-05-13T21:34:31.574Z,4.93
2019-05-13T21:37:02.379Z,2.20
2019-05-13T21:39:31.959Z,4.23
2019-05-13T21:42:02.355Z,5.07
2019-05-13T21:44:32.626Z,3.87
2019-05-13T21:47:02.246Z,3.57
2019-05-13T21:49:32.019Z,3.47
2019-05-13T21:52:01.189Z,4.53
2019-05-13T21:54:33.240Z,3.33
2019-05-13T21:57:02.219Z,5.43
2019-05-13T21:59:31.921Z,5.00
2019-05-13T22:02:01.759Z,4.50
2019-05-13T22:04:30.679Z,3.33
2019-05-13T22:07:01.755Z,3.47
2019-05-13T22:09:31.774Z,2.00
2019-05-13T22:12:01.844Z,3.87
2019-05-13T22:14:31.998Z,4.07
2019-05-13T22:17:01.730Z,4.37
2019-05-13T22:19:31.554Z,2.80
2019-05-13T22:22:02.214Z,3.67
2019-05-13T22:24:31.386Z,4.57
2019-05-13T22:27:02.005Z,5.20
2019-05-13T22:29:32.075Z,3.37
2019-05-13T22:32:02.077Z,3.07
2019-05-13T22:34:31.949Z,5.20
2019-05-13T22:37:02.374Z,2.20
2019-05-13T22:39:34.543Z,5.20
2019-05-13T22:42:02.076Z,4.50
2019-05-13T22:44:32.442Z,5.77
2019-05-13T22:47:02.437Z,2.53
2019-05-13T22:49:31.825Z,2.03
2019-05-13T22:52:00.668Z,2.67
2019-05-13T22:54:31.666Z,5.00
2019-05-13T22:57:00.163Z,6.70
2019-05-13T22:59:29.009Z,2.90
2019-05-13T23:01:58.006Z,6.77
2019-05-13T23:04:26.896Z,4.20
2019-05-13T23:06:55.855Z,5.93
2019-05-13T23:09:24.745Z,5.20
2019-05-13T23:11:53.624Z,4.67
2019-05-13T23:14:22.513Z,3.47
2019-05-13T23:16:51.451Z,4.03
2019-05-13T23:19:21.657Z,5.07
2019-05-13T23:21:51.213Z,2.33
2019-05-13T23:24:21.847Z,2.73
2019-05-13T23:26:51.570Z,3.90
2019-05-13T23:29:21.439Z,6.10
2019-05-13T23:31:52.023Z,2.80
2019-05-13T23:34:22.284Z,6.07
2019-05-13T23:36:51.607Z,5.60
2019-05-13T23:39:21.724Z,3.70
2019-05-13T23:41:52.141Z,4.73
2019-05-13T23:44:27.149Z,3.83
2019-05-13T23:46:51.949Z,12.13
2019-05-13T23:49:21.192Z,3.90
2019-05-13T23:51:52.010Z,2.90
2019-05-13T23:54:21.358Z,2.63
2019-05-13T23:56:50.457Z,2.70
2019-05-13T23:59:19.351Z,2.63
